aviador You're here:

RODN Decoded Metar

KADENA in JAPAN
Report Time2017-04-25 05:58:00
UTC Time2017-04-25 06:30:19
Flight Rules vfr VFR
Wind110° at 14 kt
W.Decomp.*RWY 05: 6.1 kt HW 12.6 kt RCW
W.Rank110° ranks 16
Current wind is above 110° avg. (9.2)
Visibility9999 m
Phenomena:N/A
Clouds:Few 020 Hf
Expected CloudBase > 2,000 ft AGL from Temp-Dew spread
CeilingNone
Temp25°C (ISA +10)
Dew Point20°C (74% RH)
AAT23.7°C
QNH1017 hPa
Density Alt1,516 ft
Elevation148 ft
Report Wrong Elevation
Raw Report
RODN 250558Z AUTO 11014KT 10SM FEW020 25/20 A3002 RMK AO2 SLP171
T02500201 10256 20232 57014=

Extra information for RODN:More info

Metar Taf Metar & Taf Last 4 Metars F.Rules Stats Wind Profile Meteogram Temp Stats Airport Information Weather charts Add Link Nearby VenuesMetar ALERT Operation Metar Decoded Social comments